sensor_id;sensor_type;location;lat;lon;timestamp;P1;durP1;ratioP1;P2;durP2;ratioP2
77625;SDS011;66794;43.764;10.436;2023-02-01T00:02:00;54.83;;;34.03;;
77625;SDS011;66794;43.764;10.436;2023-02-01T00:04:26;55.00;;;32.92;;
77625;SDS011;66794;43.764;10.436;2023-02-01T00:06:52;56.63;;;34.78;;
77625;SDS011;66794;43.764;10.436;2023-02-01T00:09:17;58.08;;;33.58;;
77625;SDS011;66794;43.764;10.436;2023-02-01T00:11:43;51.70;;;32.88;;
77625;SDS011;66794;43.764;10.436;2023-02-01T00:14:09;52.05;;;33.70;;
77625;SDS011;66794;43.764;10.436;2023-02-01T00:16:34;56.92;;;33.55;;
77625;SDS011;66794;43.764;10.436;2023-02-01T00:19:02;53.10;;;32.47;;
77625;SDS011;66794;43.764;10.436;2023-02-01T00:21:33;50.30;;;31.65;;
77625;SDS011;66794;43.764;10.436;2023-02-01T00:23:58;51.75;;;33.10;;
77625;SDS011;66794;43.764;10.436;2023-02-01T00:26:34;51.88;;;33.50;;
77625;SDS011;66794;43.764;10.436;2023-02-01T00:29:02;49.75;;;31.83;;
77625;SDS011;66794;43.764;10.436;2023-02-01T00:31:30;48.72;;;31.33;;
77625;SDS011;66794;43.764;10.436;2023-02-01T00:33:55;52.97;;;33.47;;
77625;SDS011;66794;43.764;10.436;2023-02-01T00:36:21;51.47;;;33.20;;
77625;SDS011;66794;43.764;10.436;2023-02-01T00:38:46;55.25;;;33.88;;
77625;SDS011;66794;43.764;10.436;2023-02-01T00:41:13;64.25;;;39.58;;
77625;SDS011;66794;43.764;10.436;2023-02-01T00:43:42;55.53;;;32.88;;
77625;SDS011;66794;43.764;10.436;2023-02-01T00:46:08;53.17;;;33.75;;
77625;SDS011;66794;43.764;10.436;2023-02-01T00:48:34;56.40;;;34.92;;
77625;SDS011;66794;43.764;10.436;2023-02-01T00:51:00;65.40;;;36.17;;
77625;SDS011;66794;43.764;10.436;2023-02-01T00:53:26;48.38;;;30.63;;
77625;SDS011;66794;43.764;10.436;2023-02-01T00:55:52;44.63;;;28.45;;
77625;SDS011;66794;43.764;10.436;2023-02-01T00:58:17;45.67;;;29.30;;
77625;SDS011;66794;43.764;10.436;2023-02-01T01:00:43;55.42;;;33.78;;
77625;SDS011;66794;43.764;10.436;2023-02-01T01:03:09;50.20;;;32.83;;
77625;SDS011;66794;43.764;10.436;2023-02-01T01:05:46;48.60;;;31.83;;
77625;SDS011;66794;43.764;10.436;2023-02-01T01:08:13;49.58;;;31.02;;
77625;SDS011;66794;43.764;10.436;2023-02-01T01:10:40;45.50;;;30.30;;
77625;SDS011;66794;43.764;10.436;2023-02-01T01:13:05;55.83;;;32.60;;
77625;SDS011;66794;43.764;10.436;2023-02-01T01:15:35;53.58;;;30.15;;
77625;SDS011;66794;43.764;10.436;2023-02-01T01:18:01;46.90;;;29.30;;
77625;SDS011;66794;43.764;10.436;2023-02-01T01:20:27;54.55;;;31.90;;
77625;SDS011;66794;43.764;10.436;2023-02-01T01:22:52;52.53;;;33.42;;
77625;SDS011;66794;43.764;10.436;2023-02-01T01:25:18;53.72;;;31.70;;
77625;SDS011;66794;43.764;10.436;2023-02-01T01:27:43;46.40;;;29.63;;
77625;SDS011;66794;43.764;10.436;2023-02-01T01:30:09;49.15;;;31.90;;
77625;SDS011;66794;43.764;10.436;2023-02-01T01:32:35;47.85;;;31.38;;
77625;SDS011;66794;43.764;10.436;2023-02-01T01:35:00;55.05;;;35.42;;
77625;SDS011;66794;43.764;10.436;2023-02-01T01:37:25;57.33;;;34.58;;
77625;SDS011;66794;43.764;10.436;2023-02-01T01:39:51;55.13;;;31.23;;
77625;SDS011;66794;43.764;10.436;2023-02-01T01:42:16;54.58;;;32.33;;
77625;SDS011;66794;43.764;10.436;2023-02-01T01:44:56;54.83;;;29.92;;
77625;SDS011;66794;43.764;10.436;2023-02-01T01:47:41;50.88;;;33.53;;
77625;SDS011;66794;43.764;10.436;2023-02-01T01:50:10;52.63;;;32.10;;
77625;SDS011;66794;43.764;10.436;2023-02-01T01:52:41;51.28;;;32.45;;
77625;SDS011;66794;43.764;10.436;2023-02-01T01:55:11;49.83;;;31.17;;
77625;SDS011;66794;43.764;10.436;2023-02-01T01:57:37;50.63;;;32.63;;
77625;SDS011;66794;43.764;10.436;2023-02-01T02:00:08;49.40;;;31.05;;
77625;SDS011;66794;43.764;10.436;2023-02-01T02:02:36;48.85;;;31.02;;
77625;SDS011;66794;43.764;10.436;2023-02-01T02:05:04;53.50;;;33.40;;
77625;SDS011;66794;43.764;10.436;2023-02-01T02:07:31;54.05;;;35.28;;
77625;SDS011;66794;43.764;10.436;2023-02-01T02:10:00;254.88;;;128.80;;
77625;SDS011;66794;43.764;10.436;2023-02-01T02:12:30;395.23;;;197.18;;
77625;SDS011;66794;43.764;10.436;2023-02-01T02:14:56;205.98;;;99.72;;
77625;SDS011;66794;43.764;10.436;2023-02-01T02:17:40;90.30;;;51.10;;
77625;SDS011;66794;43.764;10.436;2023-02-01T02:47:55;51.75;;;35.00;;
77625;SDS011;66794;43.764;10.436;2023-02-01T02:50:37;49.92;;;33.47;;
77625;SDS011;66794;43.764;10.436;2023-02-01T02:53:29;55.45;;;34.92;;
77625;SDS011;66794;43.764;10.436;2023-02-01T02:56:28;51.00;;;33.47;;
77625;SDS011;66794;43.764;10.436;2023-02-01T02:59:15;53.58;;;35.20;;
77625;SDS011;66794;43.764;10.436;2023-02-01T03:02:04;55.05;;;33.03;;
77625;SDS011;66794;43.764;10.436;2023-02-01T03:13:03;47.83;;;33.22;;
77625;SDS011;66794;43.764;10.436;2023-02-01T03:18:06;48.92;;;31.88;;
77625;SDS011;66794;43.764;10.436;2023-02-01T03:20:39;50.75;;;33.10;;
77625;SDS011;66794;43.764;10.436;2023-02-01T03:23:09;43.72;;;29.10;;
77625;SDS011;66794;43.764;10.436;2023-02-01T03:25:36;45.85;;;27.60;;
77625;SDS011;66794;43.764;10.436;2023-02-01T03:28:08;43.40;;;27.30;;
77625;SDS011;66794;43.764;10.436;2023-02-01T03:30:39;52.20;;;27.23;;
77625;SDS011;66794;43.764;10.436;2023-02-01T03:33:08;40.10;;;26.35;;
77625;SDS011;66794;43.764;10.436;2023-02-01T03:41:10;41.30;;;26.45;;
77625;SDS011;66794;43.764;10.436;2023-02-01T03:43:47;42.88;;;25.80;;
77625;SDS011;66794;43.764;10.436;2023-02-01T03:46:21;42.40;;;25.95;;
77625;SDS011;66794;43.764;10.436;2023-02-01T03:48:57;41.28;;;25.30;;
77625;SDS011;66794;43.764;10.436;2023-02-01T03:51:27;40.03;;;26.63;;
77625;SDS011;66794;43.764;10.436;2023-02-01T03:53:54;40.92;;;25.63;;
77625;SDS011;66794;43.764;10.436;2023-02-01T03:56:22;36.65;;;25.02;;
77625;SDS011;66794;43.764;10.436;2023-02-01T03:58:50;39.58;;;25.85;;
77625;SDS011;66794;43.764;10.436;2023-02-01T04:01:28;42.05;;;26.60;;
77625;SDS011;66794;43.764;10.436;2023-02-01T04:03:55;37.13;;;25.17;;
77625;SDS011;66794;43.764;10.436;2023-02-01T04:06:21;41.00;;;26.13;;
77625;SDS011;66794;43.764;10.436;2023-02-01T04:08:47;34.55;;;24.40;;
77625;SDS011;66794;43.764;10.436;2023-02-01T04:11:12;35.50;;;24.55;;
77625;SDS011;66794;43.764;10.436;2023-02-01T04:13:38;38.72;;;26.25;;
77625;SDS011;66794;43.764;10.436;2023-02-01T04:16:03;40.28;;;26.00;;
77625;SDS011;66794;43.764;10.436;2023-02-01T04:18:29;38.13;;;26.33;;
77625;SDS011;66794;43.764;10.436;2023-02-01T04:20:54;43.60;;;27.90;;
77625;SDS011;66794;43.764;10.436;2023-02-01T04:23:19;42.60;;;26.38;;
77625;SDS011;66794;43.764;10.436;2023-02-01T04:25:45;41.05;;;26.55;;
77625;SDS011;66794;43.764;10.436;2023-02-01T04:28:11;43.10;;;27.33;;
77625;SDS011;66794;43.764;10.436;2023-02-01T04:30:36;38.95;;;27.40;;
77625;SDS011;66794;43.764;10.436;2023-02-01T04:33:02;44.15;;;27.42;;
77625;SDS011;66794;43.764;10.436;2023-02-01T04:35:30;46.70;;;27.83;;
77625;SDS011;66794;43.764;10.436;2023-02-01T04:37:56;39.63;;;27.48;;
77625;SDS011;66794;43.764;10.436;2023-02-01T04:40:21;38.80;;;26.17;;
77625;SDS011;66794;43.764;10.436;2023-02-01T04:42:46;38.80;;;26.40;;
77625;SDS011;66794;43.764;10.436;2023-02-01T04:45:12;43.20;;;27.83;;
77625;SDS011;66794;43.764;10.436;2023-02-01T04:47:38;36.42;;;26.13;;
77625;SDS011;66794;43.764;10.436;2023-02-01T04:50:04;43.50;;;27.02;;
77625;SDS011;66794;43.764;10.436;2023-02-01T04:52:31;37.92;;;27.17;;
77625;SDS011;66794;43.764;10.436;2023-02-01T04:54:56;40.20;;;25.77;;
77625;SDS011;66794;43.764;10.436;2023-02-01T04:57:24;40.55;;;26.42;;
77625;SDS011;66794;43.764;10.436;2023-02-01T04:59:50;42.20;;;28.65;;
77625;SDS011;66794;43.764;10.436;2023-02-01T05:02:15;43.53;;;27.85;;
77625;SDS011;66794;43.764;10.436;2023-02-01T05:04:41;39.85;;;28.13;;
77625;SDS011;66794;43.764;10.436;2023-02-01T05:07:06;39.92;;;28.13;;
77625;SDS011;66794;43.764;10.436;2023-02-01T05:09:32;43.70;;;28.75;;
77625;SDS011;66794;43.764;10.436;2023-02-01T05:11:57;42.22;;;28.73;;
77625;SDS011;66794;43.764;10.436;2023-02-01T05:14:41;44.42;;;30.10;;
77625;SDS011;66794;43.764;10.436;2023-02-01T05:17:07;40.05;;;27.17;;
77625;SDS011;66794;43.764;10.436;2023-02-01T05:19:32;45.15;;;27.00;;
77625;SDS011;66794;43.764;10.436;2023-02-01T05:21:58;38.92;;;27.35;;
77625;SDS011;66794;43.764;10.436;2023-02-01T05:24:23;42.20;;;27.77;;
77625;SDS011;66794;43.764;10.436;2023-02-01T05:26:48;41.85;;;27.92;;
77625;SDS011;66794;43.764;10.436;2023-02-01T05:29:15;40.75;;;28.80;;
77625;SDS011;66794;43.764;10.436;2023-02-01T05:31:43;46.85;;;30.70;;
77625;SDS011;66794;43.764;10.436;2023-02-01T05:34:10;42.83;;;30.38;;
77625;SDS011;66794;43.764;10.436;2023-02-01T05:36:36;45.13;;;30.73;;
77625;SDS011;66794;43.764;10.436;2023-02-01T05:39:02;48.17;;;32.10;;
77625;SDS011;66794;43.764;10.436;2023-02-01T05:41:27;44.05;;;30.95;;
77625;SDS011;66794;43.764;10.436;2023-02-01T05:43:53;141.93;;;67.28;;
77625;SDS011;66794;43.764;10.436;2023-02-01T05:46:18;66.43;;;41.17;;
77625;SDS011;66794;43.764;10.436;2023-02-01T05:48:44;48.35;;;33.70;;
77625;SDS011;66794;43.764;10.436;2023-02-01T05:51:10;46.72;;;32.00;;
77625;SDS011;66794;43.764;10.436;2023-02-01T05:53:36;50.03;;;31.88;;
77625;SDS011;66794;43.764;10.436;2023-02-01T05:56:02;50.25;;;31.08;;
77625;SDS011;66794;43.764;10.436;2023-02-01T05:58:29;48.85;;;31.60;;
77625;SDS011;66794;43.764;10.436;2023-02-01T06:00:58;49.90;;;32.35;;
77625;SDS011;66794;43.764;10.436;2023-02-01T06:03:25;46.15;;;31.60;;
77625;SDS011;66794;43.764;10.436;2023-02-01T06:05:50;48.72;;;33.13;;
77625;SDS011;66794;43.764;10.436;2023-02-01T06:08:15;47.42;;;31.98;;
77625;SDS011;66794;43.764;10.436;2023-02-01T06:10:42;44.20;;;31.10;;
77625;SDS011;66794;43.764;10.436;2023-02-01T06:13:07;49.88;;;32.80;;
77625;SDS011;66794;43.764;10.436;2023-02-01T06:15:33;46.13;;;33.30;;
77625;SDS011;66794;43.764;10.436;2023-02-01T06:17:59;52.28;;;33.03;;
77625;SDS011;66794;43.764;10.436;2023-02-01T06:20:24;49.67;;;32.95;;
77625;SDS011;66794;43.764;10.436;2023-02-01T06:22:49;55.92;;;36.25;;
77625;SDS011;66794;43.764;10.436;2023-02-01T06:25:15;50.42;;;33.13;;
77625;SDS011;66794;43.764;10.436;2023-02-01T06:27:42;51.08;;;33.35;;
77625;SDS011;66794;43.764;10.436;2023-02-01T06:30:07;47.25;;;32.45;;
77625;SDS011;66794;43.764;10.436;2023-02-01T06:32:33;66.32;;;40.80;;
77625;SDS011;66794;43.764;10.436;2023-02-01T06:34:59;47.95;;;33.30;;
77625;SDS011;66794;43.764;10.436;2023-02-01T06:37:25;49.00;;;32.53;;
77625;SDS011;66794;43.764;10.436;2023-02-01T06:39:52;56.17;;;37.65;;
77625;SDS011;66794;43.764;10.436;2023-02-01T06:42:18;49.75;;;31.33;;
77625;SDS011;66794;43.764;10.436;2023-02-01T06:44:43;44.88;;;30.95;;
77625;SDS011;66794;43.764;10.436;2023-02-01T06:47:09;53.75;;;35.95;;
77625;SDS011;66794;43.764;10.436;2023-02-01T06:49:34;59.95;;;39.92;;
77625;SDS011;66794;43.764;10.436;2023-02-01T06:51:59;57.72;;;40.40;;
77625;SDS011;66794;43.764;10.436;2023-02-01T06:54:25;52.08;;;35.33;;
77625;SDS011;66794;43.764;10.436;2023-02-01T06:56:51;49.50;;;30.95;;
77625;SDS011;66794;43.764;10.436;2023-02-01T06:59:17;52.95;;;31.77;;
77625;SDS011;66794;43.764;10.436;2023-02-01T07:01:42;45.47;;;30.65;;
77625;SDS011;66794;43.764;10.436;2023-02-01T07:04:09;46.55;;;29.63;;
77625;SDS011;66794;43.764;10.436;2023-02-01T07:06:36;51.58;;;31.13;;
77625;SDS011;66794;43.764;10.436;2023-02-01T07:09:01;40.67;;;26.75;;
77625;SDS011;66794;43.764;10.436;2023-02-01T07:11:27;38.22;;;25.33;;
77625;SDS011;66794;43.764;10.436;2023-02-01T07:13:53;41.22;;;26.65;;
77625;SDS011;66794;43.764;10.436;2023-02-01T07:16:19;42.17;;;24.88;;
77625;SDS011;66794;43.764;10.436;2023-02-01T07:18:45;38.35;;;24.77;;
77625;SDS011;66794;43.764;10.436;2023-02-01T07:21:11;38.90;;;25.02;;
77625;SDS011;66794;43.764;10.436;2023-02-01T07:23:37;38.25;;;23.25;;
77625;SDS011;66794;43.764;10.436;2023-02-01T07:26:04;38.70;;;23.98;;
77625;SDS011;66794;43.764;10.436;2023-02-01T07:28:31;41.67;;;24.17;;
77625;SDS011;66794;43.764;10.436;2023-02-01T07:31:02;37.25;;;24.00;;
77625;SDS011;66794;43.764;10.436;2023-02-01T07:33:29;41.97;;;27.15;;
77625;SDS011;66794;43.764;10.436;2023-02-01T07:35:55;46.95;;;29.10;;
77625;SDS011;66794;43.764;10.436;2023-02-01T07:38:20;41.20;;;25.90;;
77625;SDS011;66794;43.764;10.436;2023-02-01T07:40:46;44.60;;;26.92;;
77625;SDS011;66794;43.764;10.436;2023-02-01T07:43:12;38.65;;;24.60;;
77625;SDS011;66794;43.764;10.436;2023-02-01T07:45:37;40.75;;;26.55;;
77625;SDS011;66794;43.764;10.436;2023-02-01T07:48:03;42.50;;;26.95;;
77625;SDS011;66794;43.764;10.436;2023-02-01T07:50:29;43.58;;;28.63;;
77625;SDS011;66794;43.764;10.436;2023-02-01T07:52:55;42.90;;;29.70;;
77625;SDS011;66794;43.764;10.436;2023-02-01T07:55:21;51.85;;;31.00;;
77625;SDS011;66794;43.764;10.436;2023-02-01T07:57:46;49.90;;;30.55;;
77625;SDS011;66794;43.764;10.436;2023-02-01T08:00:12;43.78;;;27.90;;
77625;SDS011;66794;43.764;10.436;2023-02-01T08:02:57;44.33;;;28.35;;
77625;SDS011;66794;43.764;10.436;2023-02-01T08:05:23;42.22;;;27.55;;
77625;SDS011;66794;43.764;10.436;2023-02-01T08:07:49;39.85;;;26.63;;
77625;SDS011;66794;43.764;10.436;2023-02-01T08:10:16;40.88;;;26.77;;
77625;SDS011;66794;43.764;10.436;2023-02-01T08:12:42;44.40;;;26.58;;
77625;SDS011;66794;43.764;10.436;2023-02-01T08:15:08;45.47;;;27.75;;
77625;SDS011;66794;43.764;10.436;2023-02-01T08:17:34;42.83;;;27.60;;
77625;SDS011;66794;43.764;10.436;2023-02-01T08:19:59;39.33;;;27.23;;
77625;SDS011;66794;43.764;10.436;2023-02-01T08:22:24;45.60;;;29.35;;
77625;SDS011;66794;43.764;10.436;2023-02-01T08:24:50;49.72;;;33.22;;
77625;SDS011;66794;43.764;10.436;2023-02-01T08:27:16;56.03;;;35.30;;
77625;SDS011;66794;43.764;10.436;2023-02-01T08:29:42;64.10;;;37.90;;
77625;SDS011;66794;43.764;10.436;2023-02-01T08:32:09;66.05;;;38.90;;
77625;SDS011;66794;43.764;10.436;2023-02-01T08:34:34;63.72;;;40.83;;
77625;SDS011;66794;43.764;10.436;2023-02-01T08:36:59;66.10;;;40.20;;
77625;SDS011;66794;43.764;10.436;2023-02-01T08:39:25;75.03;;;44.90;;
77625;SDS011;66794;43.764;10.436;2023-02-01T08:41:51;70.68;;;45.97;;
77625;SDS011;66794;43.764;10.436;2023-02-01T08:44:35;74.00;;;45.50;;
77625;SDS011;66794;43.764;10.436;2023-02-01T08:47:02;65.45;;;43.90;;
77625;SDS011;66794;43.764;10.436;2023-02-01T08:49:28;61.88;;;42.58;;
77625;SDS011;66794;43.764;10.436;2023-02-01T08:51:54;70.20;;;42.45;;
77625;SDS011;66794;43.764;10.436;2023-02-01T08:54:20;65.82;;;42.72;;
77625;SDS011;66794;43.764;10.436;2023-02-01T08:56:46;60.95;;;42.33;;
77625;SDS011;66794;43.764;10.436;2023-02-01T08:59:11;63.25;;;40.13;;
77625;SDS011;66794;43.764;10.436;2023-02-01T09:01:37;61.58;;;42.53;;
77625;SDS011;66794;43.764;10.436;2023-02-01T09:04:02;63.00;;;41.88;;
77625;SDS011;66794;43.764;10.436;2023-02-01T09:06:28;64.72;;;42.47;;
77625;SDS011;66794;43.764;10.436;2023-02-01T09:08:53;68.55;;;43.00;;
77625;SDS011;66794;43.764;10.436;2023-02-01T09:11:19;64.25;;;43.08;;
77625;SDS011;66794;43.764;10.436;2023-02-01T09:13:44;64.75;;;41.80;;
77625;SDS011;66794;43.764;10.436;2023-02-01T09:16:11;67.53;;;42.28;;
77625;SDS011;66794;43.764;10.436;2023-02-01T09:18:37;68.50;;;42.95;;
77625;SDS011;66794;43.764;10.436;2023-02-01T09:21:06;57.92;;;40.05;;
77625;SDS011;66794;43.764;10.436;2023-02-01T09:23:32;58.58;;;40.92;;
77625;SDS011;66794;43.764;10.436;2023-02-01T09:25:59;64.03;;;42.05;;
77625;SDS011;66794;43.764;10.436;2023-02-01T09:28:25;62.08;;;41.58;;
77625;SDS011;66794;43.764;10.436;2023-02-01T09:30:54;68.05;;;42.28;;
77625;SDS011;66794;43.764;10.436;2023-02-01T09:33:24;63.20;;;42.83;;
77625;SDS011;66794;43.764;10.436;2023-02-01T09:35:55;63.22;;;42.88;;
77625;SDS011;66794;43.764;10.436;2023-02-01T09:38:25;72.20;;;44.53;;
77625;SDS011;66794;43.764;10.436;2023-02-01T09:40:52;67.00;;;42.50;;
77625;SDS011;66794;43.764;10.436;2023-02-01T09:46:24;60.75;;;42.15;;
77625;SDS011;66794;43.764;10.436;2023-02-01T09:48:54;65.32;;;42.95;;
77625;SDS011;66794;43.764;10.436;2023-02-01T09:51:32;59.15;;;39.22;;
77625;SDS011;66794;43.764;10.436;2023-02-01T09:54:09;54.58;;;37.97;;
77625;SDS011;66794;43.764;10.436;2023-02-01T09:56:41;64.32;;;43.20;;
77625;SDS011;66794;43.764;10.436;2023-02-01T10:02:38;71.63;;;49.60;;
77625;SDS011;66794;43.764;10.436;2023-02-01T10:04:59;60.28;;;38.72;;
77625;SDS011;66794;43.764;10.436;2023-02-01T10:07:30;72.80;;;49.85;;
77625;SDS011;66794;43.764;10.436;2023-02-01T10:26:42;58.78;;;38.25;;
77625;SDS011;66794;43.764;10.436;2023-02-01T10:29:18;63.50;;;39.47;;
77625;SDS011;66794;43.764;10.436;2023-02-01T10:31:45;67.95;;;42.50;;
77625;SDS011;66794;43.764;10.436;2023-02-01T10:34:19;97.47;;;60.88;;
77625;SDS011;66794;43.764;10.436;2023-02-01T10:36:57;111.53;;;69.90;;
77625;SDS011;66794;43.764;10.436;2023-02-01T10:39:26;109.50;;;67.57;;
77625;SDS011;66794;43.764;10.436;2023-02-01T10:41:51;97.68;;;63.88;;
77625;SDS011;66794;43.764;10.436;2023-02-01T10:44:22;71.75;;;48.80;;
77625;SDS011;66794;43.764;10.436;2023-02-01T10:46:51;75.82;;;48.95;;
77625;SDS011;66794;43.764;10.436;2023-02-01T10:49:25;85.43;;;55.60;;
77625;SDS011;66794;43.764;10.436;2023-02-01T10:51:58;92.00;;;58.25;;
77625;SDS011;66794;43.764;10.436;2023-02-01T10:54:32;100.25;;;63.50;;
77625;SDS011;66794;43.764;10.436;2023-02-01T10:57:04;102.30;;;64.10;;
77625;SDS011;66794;43.764;10.436;2023-02-01T10:59:32;109.53;;;74.68;;
77625;SDS011;66794;43.764;10.436;2023-02-01T11:02:02;107.00;;;71.20;;
77625;SDS011;66794;43.764;10.436;2023-02-01T11:04:40;84.07;;;55.20;;
77625;SDS011;66794;43.764;10.436;2023-02-01T11:09:50;86.85;;;54.85;;
77625;SDS011;66794;43.764;10.436;2023-02-01T11:12:33;74.03;;;49.58;;
77625;SDS011;66794;43.764;10.436;2023-02-01T11:15:03;69.10;;;44.00;;
77625;SDS011;66794;43.764;10.436;2023-02-01T11:17:44;63.30;;;40.63;;
77625;SDS011;66794;43.764;10.436;2023-02-01T11:20:16;70.85;;;45.20;;
77625;SDS011;66794;43.764;10.436;2023-02-01T11:22:47;69.55;;;45.00;;
77625;SDS011;66794;43.764;10.436;2023-02-01T11:25:14;69.15;;;44.30;;
77625;SDS011;66794;43.764;10.436;2023-02-01T11:27:42;65.72;;;44.58;;
77625;SDS011;66794;43.764;10.436;2023-02-01T11:30:19;68.10;;;44.53;;
77625;SDS011;66794;43.764;10.436;2023-02-01T11:32:52;60.83;;;38.60;;
77625;SDS011;66794;43.764;10.436;2023-02-01T11:35:19;62.28;;;40.33;;
77625;SDS011;66794;43.764;10.436;2023-02-01T11:37:49;62.38;;;39.92;;
77625;SDS011;66794;43.764;10.436;2023-02-01T11:45:28;30.98;;;15.75;;
77625;SDS011;66794;43.764;10.436;2023-02-01T11:47:56;35.42;;;20.88;;
77625;SDS011;66794;43.764;10.436;2023-02-01T11:50:38;34.40;;;21.05;;
77625;SDS011;66794;43.764;10.436;2023-02-01T11:56:35;35.33;;;17.63;;
77625;SDS011;66794;43.764;10.436;2023-02-01T12:04:18;39.70;;;21.48;;
77625;SDS011;66794;43.764;10.436;2023-02-01T12:10:22;42.15;;;21.85;;
77625;SDS011;66794;43.764;10.436;2023-02-01T12:21:38;27.83;;;12.60;;
77625;SDS011;66794;43.764;10.436;2023-02-01T12:37:53;28.30;;;13.65;;
77625;SDS011;66794;43.764;10.436;2023-02-01T12:46:31;25.55;;;12.15;;
77625;SDS011;66794;43.764;10.436;2023-02-01T12:49:17;27.48;;;13.90;;
77625;SDS011;66794;43.764;10.436;2023-02-01T12:51:50;25.70;;;14.68;;
77625;SDS011;66794;43.764;10.436;2023-02-01T12:54:23;26.40;;;13.95;;
77625;SDS011;66794;43.764;10.436;2023-02-01T12:57:11;29.58;;;13.85;;
77625;SDS011;66794;43.764;10.436;2023-02-01T12:59:47;26.80;;;14.95;;
77625;SDS011;66794;43.764;10.436;2023-02-01T13:05:24;32.78;;;14.50;;
77625;SDS011;66794;43.764;10.436;2023-02-01T13:08:08;27.27;;;14.30;;
77625;SDS011;66794;43.764;10.436;2023-02-01T13:10:48;30.38;;;14.45;;
77625;SDS011;66794;43.764;10.436;2023-02-01T13:13:28;26.98;;;13.27;;
77625;SDS011;66794;43.764;10.436;2023-02-01T13:18:52;27.75;;;13.90;;
77625;SDS011;66794;43.764;10.436;2023-02-01T13:21:26;26.13;;;14.68;;
77625;SDS011;66794;43.764;10.436;2023-02-01T13:23:56;27.42;;;14.15;;
77625;SDS011;66794;43.764;10.436;2023-02-01T13:26:23;33.55;;;14.32;;
77625;SDS011;66794;43.764;10.436;2023-02-01T13:28:53;31.23;;;17.58;;
77625;SDS011;66794;43.764;10.436;2023-02-01T13:36:58;34.85;;;14.95;;
77625;SDS011;66794;43.764;10.436;2023-02-01T13:42:31;33.85;;;14.88;;
77625;SDS011;66794;43.764;10.436;2023-02-01T13:45:03;28.38;;;14.00;;
77625;SDS011;66794;43.764;10.436;2023-02-01T13:47:39;25.95;;;13.85;;
77625;SDS011;66794;43.764;10.436;2023-02-01T13:52:45;26.58;;;12.98;;
77625;SDS011;66794;43.764;10.436;2023-02-01T13:55:33;24.63;;;12.82;;
77625;SDS011;66794;43.764;10.436;2023-02-01T13:58:05;30.42;;;12.93;;
77625;SDS011;66794;43.764;10.436;2023-02-01T14:00:40;23.95;;;13.02;;
77625;SDS011;66794;43.764;10.436;2023-02-01T14:03:13;31.30;;;13.10;;
77625;SDS011;66794;43.764;10.436;2023-02-01T14:23:47;10.68;;;4.85;;
77625;SDS011;66794;43.764;10.436;2023-02-01T14:26:23;12.80;;;5.05;;
77625;SDS011;66794;43.764;10.436;2023-02-01T14:28:52;16.45;;;5.13;;
77625;SDS011;66794;43.764;10.436;2023-02-01T14:34:16;12.68;;;4.85;;
77625;SDS011;66794;43.764;10.436;2023-02-01T14:37:05;15.00;;;4.78;;
77625;SDS011;66794;43.764;10.436;2023-02-01T14:39:38;12.82;;;4.30;;
77625;SDS011;66794;43.764;10.436;2023-02-01T14:44:56;15.52;;;5.38;;
77625;SDS011;66794;43.764;10.436;2023-02-01T14:50:40;19.35;;;7.55;;
77625;SDS011;66794;43.764;10.436;2023-02-01T15:01:29;21.10;;;6.80;;
77625;SDS011;66794;43.764;10.436;2023-02-01T15:17:03;14.15;;;6.38;;
77625;SDS011;66794;43.764;10.436;2023-02-01T15:20:31;14.50;;;6.32;;
77625;SDS011;66794;43.764;10.436;2023-02-01T15:22:37;15.98;;;6.18;;
77625;SDS011;66794;43.764;10.436;2023-02-01T15:25:02;15.55;;;6.13;;
77625;SDS011;66794;43.764;10.436;2023-02-01T15:27:29;21.92;;;6.25;;
77625;SDS011;66794;43.764;10.436;2023-02-01T15:30:12;14.45;;;6.35;;
77625;SDS011;66794;43.764;10.436;2023-02-01T15:32:42;15.38;;;6.57;;
77625;SDS011;66794;43.764;10.436;2023-02-01T15:46:21;16.27;;;6.80;;
77625;SDS011;66794;43.764;10.436;2023-02-01T15:48:56;17.02;;;6.35;;
77625;SDS011;66794;43.764;10.436;2023-02-01T15:51:22;15.85;;;6.78;;
77625;SDS011;66794;43.764;10.436;2023-02-01T15:53:51;20.65;;;6.53;;
77625;SDS011;66794;43.764;10.436;2023-02-01T15:56:21;21.85;;;5.82;;
77625;SDS011;66794;43.764;10.436;2023-02-01T15:58:53;20.02;;;6.18;;
77625;SDS011;66794;43.764;10.436;2023-02-01T16:01:21;12.73;;;5.22;;
77625;SDS011;66794;43.764;10.436;2023-02-01T16:03:47;13.90;;;6.07;;
77625;SDS011;66794;43.764;10.436;2023-02-01T16:08:48;42.50;;;15.32;;
77625;SDS011;66794;43.764;10.436;2023-02-01T16:11:21;21.85;;;8.27;;
77625;SDS011;66794;43.764;10.436;2023-02-01T16:13:50;17.27;;;6.10;;
77625;SDS011;66794;43.764;10.436;2023-02-01T16:16:16;17.20;;;5.88;;
77625;SDS011;66794;43.764;10.436;2023-02-01T16:18:42;23.38;;;8.30;;
77625;SDS011;66794;43.764;10.436;2023-02-01T16:21:09;29.88;;;11.75;;
77625;SDS011;66794;43.764;10.436;2023-02-01T16:23:35;44.88;;;17.15;;
77625;SDS011;66794;43.764;10.436;2023-02-01T16:26:01;47.88;;;19.88;;
77625;SDS011;66794;43.764;10.436;2023-02-01T16:28:27;37.00;;;14.70;;
77625;SDS011;66794;43.764;10.436;2023-02-01T16:30:52;45.20;;;15.80;;
77625;SDS011;66794;43.764;10.436;2023-02-01T16:33:18;38.47;;;14.77;;
77625;SDS011;66794;43.764;10.436;2023-02-01T16:35:47;35.03;;;13.73;;
77625;SDS011;66794;43.764;10.436;2023-02-01T16:38:14;30.55;;;12.73;;
77625;SDS011;66794;43.764;10.436;2023-02-01T16:40:43;28.90;;;10.60;;
77625;SDS011;66794;43.764;10.436;2023-02-01T16:43:28;23.92;;;9.95;;
77625;SDS011;66794;43.764;10.436;2023-02-01T16:45:55;30.45;;;12.18;;
77625;SDS011;66794;43.764;10.436;2023-02-01T16:48:29;49.17;;;18.23;;
77625;SDS011;66794;43.764;10.436;2023-02-01T16:50:59;40.95;;;15.63;;
77625;SDS011;66794;43.764;10.436;2023-02-01T16:53:27;34.97;;;11.75;;
77625;SDS011;66794;43.764;10.436;2023-02-01T16:55:54;27.73;;;11.10;;
77625;SDS011;66794;43.764;10.436;2023-02-01T16:58:22;23.35;;;9.32;;
77625;SDS011;66794;43.764;10.436;2023-02-01T17:00:48;17.17;;;7.18;;
77625;SDS011;66794;43.764;10.436;2023-02-01T17:03:16;21.85;;;7.75;;
77625;SDS011;66794;43.764;10.436;2023-02-01T17:05:45;18.50;;;7.40;;
77625;SDS011;66794;43.764;10.436;2023-02-01T17:08:15;18.63;;;9.80;;
77625;SDS011;66794;43.764;10.436;2023-02-01T17:10:53;19.70;;;7.28;;
77625;SDS011;66794;43.764;10.436;2023-02-01T17:13:18;20.77;;;7.38;;
77625;SDS011;66794;43.764;10.436;2023-02-01T17:16:05;22.17;;;7.43;;
77625;SDS011;66794;43.764;10.436;2023-02-01T17:18:35;22.63;;;8.07;;
77625;SDS011;66794;43.764;10.436;2023-02-01T17:21:01;22.13;;;8.48;;
77625;SDS011;66794;43.764;10.436;2023-02-01T17:23:28;16.73;;;8.52;;
77625;SDS011;66794;43.764;10.436;2023-02-01T17:25:55;23.23;;;9.20;;
77625;SDS011;66794;43.764;10.436;2023-02-01T17:28:21;19.77;;;8.98;;
77625;SDS011;66794;43.764;10.436;2023-02-01T17:30:47;19.20;;;9.13;;
77625;SDS011;66794;43.764;10.436;2023-02-01T17:33:19;23.48;;;9.43;;
77625;SDS011;66794;43.764;10.436;2023-02-01T17:35:48;25.25;;;11.93;;
77625;SDS011;66794;43.764;10.436;2023-02-01T17:38:14;25.27;;;11.55;;